sensor_id;sensor_type;location;lat;lon;timestamp;pressure;altitude;pressure_sealevel;temperature;humidity
49515;BME280;35415;47.870;16.058;2022-11-20T00:00:52;96861.41;;;1.28;97.76
49515;BME280;35415;47.870;16.058;2022-11-20T00:03:21;96828.31;;;1.12;97.86
49515;BME280;35415;47.870;16.058;2022-11-20T00:05:49;96782.44;;;0.75;97.33
49515;BME280;35415;47.870;16.058;2022-11-20T00:08:16;96877.03;;;1.36;98.13
49515;BME280;35415;47.870;16.058;2022-11-20T00:10:45;96867.25;;;1.37;97.73
49515;BME280;35415;47.870;16.058;2022-11-20T00:13:14;96860.09;;;1.37;97.57
49515;BME280;35415;47.870;16.058;2022-11-20T00:15:43;96851.94;;;1.39;98.20
49515;BME280;35415;47.870;16.058;2022-11-20T00:18:11;96858.84;;;1.40;97.65
49515;BME280;35415;47.870;16.058;2022-11-20T00:20:38;96813.75;;;1.03;97.64
49515;BME280;35415;47.870;16.058;2022-11-20T00:23:06;96816.13;;;1.11;97.57
49515;BME280;35415;47.870;16.058;2022-11-20T00:25:34;96851.34;;;1.37;97.63
49515;BME280;35415;47.870;16.058;2022-11-20T00:28:01;96863.34;;;1.39;97.54
49515;BME280;35415;47.870;16.058;2022-11-20T00:30:28;96861.63;;;1.27;97.92
49515;BME280;35415;47.870;16.058;2022-11-20T00:32:58;96846.47;;;1.34;97.68
49515;BME280;35415;47.870;16.058;2022-11-20T00:35:25;96867.16;;;1.43;97.44
49515;BME280;35415;47.870;16.058;2022-11-20T00:37:54;96867.97;;;1.44;97.44
49515;BME280;35415;47.870;16.058;2022-11-20T00:40:21;96801.34;;;1.04;97.59
49515;BME280;35415;47.870;16.058;2022-11-20T00:42:49;96876.72;;;1.44;97.84
49515;BME280;35415;47.870;16.058;2022-11-20T00:45:16;96886.31;;;1.45;97.64
49515;BME280;35415;47.870;16.058;2022-11-20T00:47:43;96882.47;;;1.41;97.73
49515;BME280;35415;47.870;16.058;2022-11-20T00:50:13;96836.59;;;0.98;97.84
49515;BME280;35415;47.870;16.058;2022-11-20T00:52:41;96859.09;;;1.13;97.83
49515;BME280;35415;47.870;16.058;2022-11-20T00:55:08;96916.84;;;1.48;97.89
49515;BME280;35415;47.870;16.058;2022-11-20T00:57:36;96919.44;;;1.36;97.98
49515;BME280;35415;47.870;16.058;2022-11-20T01:00:06;96905.75;;;1.39;97.90
49515;BME280;35415;47.870;16.058;2022-11-20T01:02:33;96916.63;;;1.49;97.73
49515;BME280;35415;47.870;16.058;2022-11-20T01:05:03;96919.94;;;1.45;98.14
49515;BME280;35415;47.870;16.058;2022-11-20T01:07:34;96882.44;;;1.23;97.93
49515;BME280;35415;47.870;16.058;2022-11-20T01:10:01;96928.13;;;1.43;97.54
49515;BME280;35415;47.870;16.058;2022-11-20T01:12:29;96849.41;;;1.01;98.06
49515;BME280;35415;47.870;16.058;2022-11-20T01:14:56;96902.16;;;1.27;97.52
49515;BME280;35415;47.870;16.058;2022-11-20T01:17:23;96912.59;;;1.47;97.32
49515;BME280;35415;47.870;16.058;2022-11-20T01:19:50;96925.25;;;1.45;97.43
49515;BME280;35415;47.870;16.058;2022-11-20T01:22:18;96851.25;;;1.00;97.52
49515;BME280;35415;47.870;16.058;2022-11-20T01:24:47;96902.97;;;1.28;97.10
49515;BME280;35415;47.870;16.058;2022-11-20T01:27:14;96909.25;;;1.33;97.16
49515;BME280;35415;47.870;16.058;2022-11-20T01:29:42;96878.28;;;1.09;97.05
49515;BME280;35415;47.870;16.058;2022-11-20T01:32:09;96897.97;;;1.19;97.10
49515;BME280;35415;47.870;16.058;2022-11-20T01:34:36;96883.81;;;1.07;97.48
49515;BME280;35415;47.870;16.058;2022-11-20T01:37:03;96908.44;;;1.08;97.43
49515;BME280;35415;47.870;16.058;2022-11-20T01:39:31;96936.63;;;1.27;98.17
49515;BME280;35415;47.870;16.058;2022-11-20T01:41:59;96882.44;;;0.98;98.17
49515;BME280;35415;47.870;16.058;2022-11-20T01:44:53;96924.31;;;1.33;97.68
49515;BME280;35415;47.870;16.058;2022-11-20T01:47:24;96915.19;;;1.29;98.21
49515;BME280;35415;47.870;16.058;2022-11-20T01:49:55;96906.06;;;1.25;98.25
49515;BME280;35415;47.870;16.058;2022-11-20T01:52:27;96897.78;;;1.14;98.12
49515;BME280;35415;47.870;16.058;2022-11-20T01:55:00;96922.34;;;1.28;98.23
49515;BME280;35415;47.870;16.058;2022-11-20T01:57:33;96902.06;;;1.15;98.25
49515;BME280;35415;47.870;16.058;2022-11-20T02:00:07;96901.47;;;1.13;98.27
49515;BME280;35415;47.870;16.058;2022-11-20T02:02:37;96913.69;;;1.14;98.38
49515;BME280;35415;47.870;16.058;2022-11-20T02:05:14;96949.31;;;1.43;98.48
49515;BME280;35415;47.870;16.058;2022-11-20T02:07:44;96905.38;;;1.11;98.31
49515;BME280;35415;47.870;16.058;2022-11-20T02:10:14;96937.09;;;1.42;98.41
49515;BME280;35415;47.870;16.058;2022-11-20T02:12:44;96874.47;;;1.05;98.39
49515;BME280;35415;47.870;16.058;2022-11-20T02:15:28;96900.84;;;1.18;98.32
49515;BME280;35415;47.870;16.058;2022-11-20T02:17:55;96875.56;;;1.15;97.93
49515;BME280;35415;47.870;16.058;2022-11-20T02:20:25;96896.00;;;1.33;97.60
49515;BME280;35415;47.870;16.058;2022-11-20T02:22:57;96905.06;;;1.44;97.41
49515;BME280;35415;47.870;16.058;2022-11-20T02:25:29;96898.38;;;1.41;97.79
49515;BME280;35415;47.870;16.058;2022-11-20T02:27:57;96858.50;;;1.11;97.84
49515;BME280;35415;47.870;16.058;2022-11-20T02:30:25;96869.97;;;1.05;97.50
49515;BME280;35415;47.870;16.058;2022-11-20T02:32:52;96879.44;;;1.19;98.17
49515;BME280;35415;47.870;16.058;2022-11-20T02:35:39;96902.50;;;1.37;98.13
49515;BME280;35415;47.870;16.058;2022-11-20T02:38:07;96893.19;;;1.28;98.05
49515;BME280;35415;47.870;16.058;2022-11-20T02:40:37;96881.84;;;1.21;98.18
49515;BME280;35415;47.870;16.058;2022-11-20T02:43:04;96906.44;;;1.28;98.40
49515;BME280;35415;47.870;16.058;2022-11-20T02:45:31;96904.94;;;1.14;99.11
49515;BME280;35415;47.870;16.058;2022-11-20T02:47:58;96870.81;;;0.99;99.22
49515;BME280;35415;47.870;16.058;2022-11-20T02:50:26;96920.06;;;1.32;99.25
49515;BME280;35415;47.870;16.058;2022-11-20T02:52:54;96851.19;;;0.82;99.45
49515;BME280;35415;47.870;16.058;2022-11-20T02:55:21;96889.22;;;1.19;99.70
49515;BME280;35415;47.870;16.058;2022-11-20T02:57:50;96857.78;;;0.98;99.34
49515;BME280;35415;47.870;16.058;2022-11-20T03:00:20;96898.88;;;1.32;99.18
49515;BME280;35415;47.870;16.058;2022-11-20T03:02:48;96858.72;;;1.10;99.33
49515;BME280;35415;47.870;16.058;2022-11-20T03:05:16;96885.63;;;1.32;98.82
49515;BME280;35415;47.870;16.058;2022-11-20T03:07:45;96841.44;;;1.07;98.95
49515;BME280;35415;47.870;16.058;2022-11-20T03:10:12;96850.56;;;1.11;98.48
49515;BME280;35415;47.870;16.058;2022-11-20T03:12:40;96789.72;;;0.80;98.68
49515;BME280;35415;47.870;16.058;2022-11-20T03:15:10;96862.66;;;1.26;98.34
49515;BME280;35415;47.870;16.058;2022-11-20T03:17:37;96876.84;;;1.31;98.59
49515;BME280;35415;47.870;16.058;2022-11-20T03:20:08;96859.84;;;1.20;98.36
49515;BME280;35415;47.870;16.058;2022-11-20T03:22:36;96802.81;;;0.75;97.89
49515;BME280;35415;47.870;16.058;2022-11-20T03:25:05;96786.38;;;0.66;98.79
49515;BME280;35415;47.870;16.058;2022-11-20T03:27:35;96868.97;;;1.25;98.99
49515;BME280;35415;47.870;16.058;2022-11-20T03:30:04;96858.28;;;1.13;99.53
49515;BME280;35415;47.870;16.058;2022-11-20T03:32:35;96808.75;;;0.70;99.70
49515;BME280;35415;47.870;16.058;2022-11-20T03:35:03;96835.06;;;0.90;100.00
49515;BME280;35415;47.870;16.058;2022-11-20T03:37:30;96787.47;;;0.58;100.00
49515;BME280;35415;47.870;16.058;2022-11-20T03:39:57;96846.28;;;1.10;100.00
49515;BME280;35415;47.870;16.058;2022-11-20T03:42:24;96844.38;;;1.17;100.00
49515;BME280;35415;47.870;16.058;2022-11-20T03:45:09;96821.84;;;1.08;100.00
49515;BME280;35415;47.870;16.058;2022-11-20T03:47:42;96809.09;;;0.99;99.66
49515;BME280;35415;47.870;16.058;2022-11-20T03:50:12;96840.06;;;1.23;99.83
49515;BME280;35415;47.870;16.058;2022-11-20T03:52:41;96827.53;;;1.12;99.65
49515;BME280;35415;47.870;16.058;2022-11-20T03:55:09;96820.25;;;1.07;99.73
49515;BME280;35415;47.870;16.058;2022-11-20T03:57:36;96826.81;;;0.98;99.90
49515;BME280;35415;47.870;16.058;2022-11-20T04:00:04;96834.50;;;1.06;100.00
49515;BME280;35415;47.870;16.058;2022-11-20T04:02:32;96822.94;;;1.01;100.00
49515;BME280;35415;47.870;16.058;2022-11-20T04:05:01;96787.72;;;0.75;100.00
49515;BME280;35415;47.870;16.058;2022-11-20T04:07:28;96802.66;;;0.70;100.00
49515;BME280;35415;47.870;16.058;2022-11-20T04:09:55;96794.28;;;0.73;100.00
49515;BME280;35415;47.870;16.058;2022-11-20T04:12:23;96820.56;;;0.93;100.00
49515;BME280;35415;47.870;16.058;2022-11-20T04:14:50;96812.25;;;0.89;100.00
49515;BME280;35415;47.870;16.058;2022-11-20T04:17:17;96825.22;;;0.97;100.00
49515;BME280;35415;47.870;16.058;2022-11-20T04:19:48;96825.38;;;1.02;100.00
49515;BME280;35415;47.870;16.058;2022-11-20T04:22:18;96834.13;;;1.03;100.00
49515;BME280;35415;47.870;16.058;2022-11-20T04:24:46;96818.25;;;1.03;100.00
49515;BME280;35415;47.870;16.058;2022-11-20T04:27:14;96824.34;;;1.03;100.00
49515;BME280;35415;47.870;16.058;2022-11-20T04:29:42;96743.75;;;0.49;100.00
49515;BME280;35415;47.870;16.058;2022-11-20T04:32:09;96815.75;;;1.08;100.00
49515;BME280;35415;47.870;16.058;2022-11-20T04:34:36;96772.97;;;0.86;100.00
49515;BME280;35415;47.870;16.058;2022-11-20T04:37:04;96815.31;;;1.11;100.00
49515;BME280;35415;47.870;16.058;2022-11-20T04:39:35;96757.66;;;0.70;100.00
49515;BME280;35415;47.870;16.058;2022-11-20T04:42:03;96717.09;;;0.51;100.00
49515;BME280;35415;47.870;16.058;2022-11-20T04:44:44;96777.03;;;0.88;100.00
49515;BME280;35415;47.870;16.058;2022-11-20T04:47:11;96791.31;;;1.06;100.00
49515;BME280;35415;47.870;16.058;2022-11-20T04:49:39;96805.88;;;1.15;100.00
49515;BME280;35415;47.870;16.058;2022-11-20T04:52:08;96802.22;;;1.16;100.00
49515;BME280;35415;47.870;16.058;2022-11-20T04:54:37;96732.59;;;0.72;100.00
49515;BME280;35415;47.870;16.058;2022-11-20T04:57:04;96769.81;;;0.96;100.00
49515;BME280;35415;47.870;16.058;2022-11-20T04:59:32;96740.44;;;0.79;100.00
49515;BME280;35415;47.870;16.058;2022-11-20T05:01:59;96766.06;;;0.85;100.00
49515;BME280;35415;47.870;16.058;2022-11-20T05:04:26;96790.28;;;1.07;100.00
49515;BME280;35415;47.870;16.058;2022-11-20T05:06:53;96717.78;;;0.65;100.00
49515;BME280;35415;47.870;16.058;2022-11-20T05:09:23;96795.97;;;1.10;100.00
49515;BME280;35415;47.870;16.058;2022-11-20T05:11:52;96757.94;;;0.80;100.00
49515;BME280;35415;47.870;16.058;2022-11-20T05:14:20;96730.06;;;0.59;100.00
49515;BME280;35415;47.870;16.058;2022-11-20T05:16:49;96795.59;;;1.07;100.00
49515;BME280;35415;47.870;16.058;2022-11-20T05:19:17;96796.41;;;1.07;100.00
49515;BME280;35415;47.870;16.058;2022-11-20T05:21:44;96714.63;;;0.56;100.00
49515;BME280;35415;47.870;16.058;2022-11-20T05:24:11;96703.88;;;0.51;100.00
49515;BME280;35415;47.870;16.058;2022-11-20T05:26:39;96752.44;;;0.81;100.00
49515;BME280;35415;47.870;16.058;2022-11-20T05:29:10;96793.75;;;1.07;100.00
49515;BME280;35415;47.870;16.058;2022-11-20T05:31:39;96783.38;;;1.06;100.00
49515;BME280;35415;47.870;16.058;2022-11-20T05:34:07;96751.81;;;0.86;100.00
49515;BME280;35415;47.870;16.058;2022-11-20T05:36:34;96781.53;;;1.06;100.00
49515;BME280;35415;47.870;16.058;2022-11-20T05:39:02;96781.31;;;1.08;100.00
49515;BME280;35415;47.870;16.058;2022-11-20T05:41:29;96774.25;;;1.02;100.00
49515;BME280;35415;47.870;16.058;2022-11-20T05:43:58;96714.03;;;0.54;100.00
49515;BME280;35415;47.870;16.058;2022-11-20T05:46:27;96738.59;;;0.79;100.00
49515;BME280;35415;47.870;16.058;2022-11-20T05:48:55;96779.56;;;1.02;100.00
49515;BME280;35415;47.870;16.058;2022-11-20T05:51:25;96718.00;;;0.63;100.00
49515;BME280;35415;47.870;16.058;2022-11-20T05:53:52;96790.00;;;1.15;100.00
49515;BME280;35415;47.870;16.058;2022-11-20T05:56:21;96785.94;;;1.12;100.00
49515;BME280;35415;47.870;16.058;2022-11-20T05:58:49;96715.53;;;0.68;100.00
49515;BME280;35415;47.870;16.058;2022-11-20T06:01:20;96708.88;;;0.59;100.00
49515;BME280;35415;47.870;16.058;2022-11-20T06:03:50;96800.81;;;1.13;100.00
49515;BME280;35415;47.870;16.058;2022-11-20T06:06:19;96775.13;;;0.96;100.00
49515;BME280;35415;47.870;16.058;2022-11-20T06:08:47;96770.13;;;0.87;100.00
49515;BME280;35415;47.870;16.058;2022-11-20T06:11:17;96711.38;;;0.54;100.00
49515;BME280;35415;47.870;16.058;2022-11-20T06:13:45;96811.19;;;1.15;100.00
49515;BME280;35415;47.870;16.058;2022-11-20T06:16:14;96815.63;;;1.21;100.00
49515;BME280;35415;47.870;16.058;2022-11-20T06:18:41;96799.41;;;1.11;100.00
49515;BME280;35415;47.870;16.058;2022-11-20T06:21:16;96779.75;;;1.00;100.00
49515;BME280;35415;47.870;16.058;2022-11-20T06:23:44;96816.06;;;1.18;100.00
49515;BME280;35415;47.870;16.058;2022-11-20T06:26:14;96817.50;;;1.14;99.77
49515;BME280;35415;47.870;16.058;2022-11-20T06:28:42;96823.78;;;1.19;99.91
49515;BME280;35415;47.870;16.058;2022-11-20T06:31:11;96804.19;;;1.02;99.75
49515;BME280;35415;47.870;16.058;2022-11-20T06:33:39;96788.06;;;0.85;99.95
49515;BME280;35415;47.870;16.058;2022-11-20T06:36:06;96782.81;;;0.79;99.74
49515;BME280;35415;47.870;16.058;2022-11-20T06:38:35;96837.09;;;1.13;99.93
49515;BME280;35415;47.870;16.058;2022-11-20T06:41:03;96839.16;;;1.11;100.00
49515;BME280;35415;47.870;16.058;2022-11-20T06:43:31;96813.06;;;0.89;100.00
49515;BME280;35415;47.870;16.058;2022-11-20T06:45:59;96856.44;;;1.13;100.00
49515;BME280;35415;47.870;16.058;2022-11-20T06:48:27;96815.59;;;0.78;99.94
49515;BME280;35415;47.870;16.058;2022-11-20T06:50:55;96770.78;;;0.58;100.00
49515;BME280;35415;47.870;16.058;2022-11-20T06:53:23;96843.97;;;0.96;100.00
49515;BME280;35415;47.870;16.058;2022-11-20T06:55:52;96805.88;;;0.72;100.00
49515;BME280;35415;47.870;16.058;2022-11-20T06:58:25;96887.75;;;1.23;100.00
49515;BME280;35415;47.870;16.058;2022-11-20T07:00:52;96886.94;;;1.23;100.00
49515;BME280;35415;47.870;16.058;2022-11-20T07:03:20;96889.38;;;1.24;100.00
49515;BME280;35415;47.870;16.058;2022-11-20T07:05:47;96858.56;;;1.05;100.00
49515;BME280;35415;47.870;16.058;2022-11-20T07:08:14;96804.72;;;0.68;100.00
49515;BME280;35415;47.870;16.058;2022-11-20T07:10:42;96800.25;;;0.62;100.00
49515;BME280;35415;47.870;16.058;2022-11-20T07:13:11;96893.63;;;1.25;100.00
49515;BME280;35415;47.870;16.058;2022-11-20T07:15:38;96914.16;;;1.30;100.00
49515;BME280;35415;47.870;16.058;2022-11-20T07:18:07;96813.97;;;0.77;100.00
49515;BME280;35415;47.870;16.058;2022-11-20T07:20:35;96878.50;;;1.07;100.00
49515;BME280;35415;47.870;16.058;2022-11-20T07:23:02;96909.09;;;1.28;100.00
49515;BME280;35415;47.870;16.058;2022-11-20T07:25:29;96884.19;;;1.11;100.00
49515;BME280;35415;47.870;16.058;2022-11-20T07:27:57;96904.59;;;1.29;100.00
49515;BME280;35415;47.870;16.058;2022-11-20T07:30:26;96872.19;;;1.08;100.00
49515;BME280;35415;47.870;16.058;2022-11-20T07:32:55;96865.75;;;0.98;100.00
49515;BME280;35415;47.870;16.058;2022-11-20T07:35:22;96878.88;;;1.11;100.00
49515;BME280;35415;47.870;16.058;2022-11-20T07:37:50;96877.41;;;1.15;100.00
49515;BME280;35415;47.870;16.058;2022-11-20T07:40:18;96828.41;;;0.81;100.00
49515;BME280;35415;47.870;16.058;2022-11-20T07:42:49;96848.06;;;0.92;100.00
49515;BME280;35415;47.870;16.058;2022-11-20T07:45:17;96890.84;;;1.20;100.00
49515;BME280;35415;47.870;16.058;2022-11-20T07:47:45;96917.75;;;1.42;100.00
49515;BME280;35415;47.870;16.058;2022-11-20T07:50:13;96892.06;;;1.17;100.00
49515;BME280;35415;47.870;16.058;2022-11-20T07:52:43;96875.78;;;1.14;100.00
49515;BME280;35415;47.870;16.058;2022-11-20T07:55:11;96880.03;;;1.22;100.00
49515;BME280;35415;47.870;16.058;2022-11-20T07:57:38;96919.72;;;1.46;100.00
49515;BME280;35415;47.870;16.058;2022-11-20T08:00:08;96910.81;;;1.41;100.00
49515;BME280;35415;47.870;16.058;2022-11-20T08:02:37;96910.16;;;1.45;100.00
49515;BME280;35415;47.870;16.058;2022-11-20T08:05:07;96903.69;;;1.41;100.00
49515;BME280;35415;47.870;16.058;2022-11-20T08:07:36;96901.75;;;1.48;100.00
49515;BME280;35415;47.870;16.058;2022-11-20T08:10:06;96907.25;;;1.54;100.00
49515;BME280;35415;47.870;16.058;2022-11-20T08:12:43;96873.91;;;1.21;100.00
49515;BME280;35415;47.870;16.058;2022-11-20T08:15:27;96860.22;;;1.24;100.00
49515;BME280;35415;47.870;16.058;2022-11-20T08:17:59;96843.63;;;1.10;100.00
49515;BME280;35415;47.870;16.058;2022-11-20T08:20:28;96915.69;;;1.62;100.00
49515;BME280;35415;47.870;16.058;2022-11-20T08:22:59;96862.28;;;1.22;100.00
49515;BME280;35415;47.870;16.058;2022-11-20T08:25:28;96870.50;;;1.14;100.00
49515;BME280;35415;47.870;16.058;2022-11-20T08:27:57;96936.25;;;1.67;100.00
49515;BME280;35415;47.870;16.058;2022-11-20T08:30:25;96938.72;;;1.68;100.00
49515;BME280;35415;47.870;16.058;2022-11-20T08:32:53;96932.78;;;1.66;100.00
49515;BME280;35415;47.870;16.058;2022-11-20T08:35:21;96904.72;;;1.40;100.00
49515;BME280;35415;47.870;16.058;2022-11-20T08:37:50;96865.53;;;1.24;100.00
49515;BME280;35415;47.870;16.058;2022-11-20T08:40:19;96942.91;;;1.76;100.00
49515;BME280;35415;47.870;16.058;2022-11-20T08:42:47;96901.06;;;1.60;100.00
49515;BME280;35415;47.870;16.058;2022-11-20T08:45:18;96924.56;;;1.74;100.00
49515;BME280;35415;47.870;16.058;2022-11-20T08:47:46;96928.53;;;1.84;100.00
49515;BME280;35415;47.870;16.058;2022-11-20T08:50:15;96940.13;;;1.89;100.00
49515;BME280;35415;47.870;16.058;2022-11-20T08:52:43;96939.91;;;1.91;100.00
49515;BME280;35415;47.870;16.058;2022-11-20T08:55:11;96941.06;;;1.95;100.00
49515;BME280;35415;47.870;16.058;2022-11-20T08:57:39;96940.84;;;1.96;100.00
49515;BME280;35415;47.870;16.058;2022-11-20T09:00:08;96931.41;;;2.00;100.00
49515;BME280;35415;47.870;16.058;2022-11-20T09:02:37;96895.16;;;1.76;100.00
49515;BME280;35415;47.870;16.058;2022-11-20T09:05:04;96937.69;;;2.06;100.00
49515;BME280;35415;47.870;16.058;2022-11-20T09:07:32;96936.28;;;2.03;100.00
49515;BME280;35415;47.870;16.058;2022-11-20T09:09:59;96952.94;;;2.10;100.00
49515;BME280;35415;47.870;16.058;2022-11-20T09:12:27;96944.53;;;2.14;100.00
49515;BME280;35415;47.870;16.058;2022-11-20T09:14:54;96929.78;;;1.99;100.00
49515;BME280;35415;47.870;16.058;2022-11-20T09:17:22;96940.25;;;2.13;100.00
49515;BME280;35415;47.870;16.058;2022-11-20T09:19:53;96880.53;;;1.73;100.00
49515;BME280;35415;47.870;16.058;2022-11-20T09:22:20;96909.38;;;2.00;100.00
49515;BME280;35415;47.870;16.058;2022-11-20T09:24:49;96933.88;;;2.20;100.00
49515;BME280;35415;47.870;16.058;2022-11-20T09:27:17;96940.56;;;2.23;100.00
49515;BME280;35415;47.870;16.058;2022-11-20T09:29:49;96935.03;;;2.24;100.00
49515;BME280;35415;47.870;16.058;2022-11-20T09:32:16;96926.03;;;2.25;100.00
49515;BME280;35415;47.870;16.058;2022-11-20T09:34:43;96897.31;;;2.04;100.00
49515;BME280;35415;47.870;16.058;2022-11-20T09:37:10;96924.31;;;2.31;100.00
49515;BME280;35415;47.870;16.058;2022-11-20T09:39:37;96900.53;;;2.24;100.00
49515;BME280;35415;47.870;16.058;2022-11-20T09:42:16;96884.91;;;2.16;100.00
49515;BME280;35415;47.870;16.058;2022-11-20T09:44:57;96909.13;;;2.38;100.00
49515;BME280;35415;47.870;16.058;2022-11-20T09:47:36;96833.13;;;1.95;100.00
49515;BME280;35415;47.870;16.058;2022-11-20T09:50:19;96892.94;;;2.28;99.94
49515;BME280;35415;47.870;16.058;2022-11-20T09:53:00;96881.22;;;2.17;100.00
49515;BME280;35415;47.870;16.058;2022-11-20T09:55:32;96818.94;;;1.90;100.00
49515;BME280;35415;47.870;16.058;2022-11-20T09:58:00;96871.22;;;2.19;100.00
49515;BME280;35415;47.870;16.058;2022-11-20T10:00:29;96861.53;;;2.25;100.00
49515;BME280;35415;47.870;16.058;2022-11-20T10:03:00;96898.56;;;2.50;100.00
49515;BME280;35415;47.870;16.058;2022-11-20T10:05:30;96899.06;;;2.58;100.00
49515;BME280;35415;47.870;16.058;2022-11-20T10:08:10;96871.66;;;2.46;100.00
49515;BME280;35415;47.870;16.058;2022-11-20T10:10:44;96879.63;;;2.46;100.00
49515;BME280;35415;47.870;16.058;2022-11-20T10:13:21;96850.38;;;2.34;100.00
49515;BME280;35415;47.870;16.058;2022-11-20T10:16:05;96856.72;;;2.33;100.00
49515;BME280;35415;47.870;16.058;2022-11-20T10:18:44;96876.06;;;2.52;100.00
49515;BME280;35415;47.870;16.058;2022-11-20T10:21:23;96849.56;;;2.34;100.00
49515;BME280;35415;47.870;16.058;2022-11-20T10:24:13;96885.66;;;2.53;100.00
49515;BME280;35415;47.870;16.058;2022-11-20T10:26:58;96891.91;;;2.59;100.00
49515;BME280;35415;47.870;16.058;2022-11-20T10:29:33;96855.38;;;2.42;100.00
49515;BME280;35415;47.870;16.058;2022-11-20T10:32:07;96837.44;;;2.26;100.00
49515;BME280;35415;47.870;16.058;2022-11-20T10:34:47;96860.69;;;2.42;100.00
49515;BME280;35415;47.870;16.058;2022-11-20T10:37:18;96884.06;;;2.64;100.00
49515;BME280;35415;47.870;16.058;2022-11-20T10:39:51;96850.41;;;2.46;100.00
49515;BME280;35415;47.870;16.058;2022-11-20T10:42:28;96840.38;;;2.36;100.00
49515;BME280;35415;47.870;16.058;2022-11-20T10:45:02;96874.81;;;2.66;100.00
49515;BME280;35415;47.870;16.058;2022-11-20T10:47:41;96834.81;;;2.38;100.00
49515;BME280;35415;47.870;16.058;2022-11-20T10:50:11;96868.41;;;2.74;100.00
49515;BME280;35415;47.870;16.058;2022-11-20T10:52:48;96812.56;;;2.39;100.00
49515;BME280;35415;47.870;16.058;2022-11-20T10:55:27;96828.53;;;2.62;100.00
49515;BME280;35415;47.870;16.058;2022-11-20T10:58:04;96824.84;;;2.63;100.00
49515;BME280;35415;47.870;16.058;2022-11-20T11:00:36;96788.47;;;2.52;100.00
49515;BME280;35415;47.870;16.058;2022-11-20T11:03:20;96808.09;;;2.63;100.00
49515;BME280;35415;47.870;16.058;2022-11-20T11:05:51;96831.03;;;2.87;100.00
49515;BME280;35415;47.870;16.058;2022-11-20T11:08:21;96853.09;;;3.11;100.00
49515;BME280;35415;47.870;16.058;2022-11-20T11:10:52;96829.31;;;3.05;100.00
49515;BME280;35415;47.870;16.058;2022-11-20T11:13:21;96858.75;;;3.15;100.00
49515;BME280;35415;47.870;16.058;2022-11-20T11:15:49;96842.13;;;3.08;100.00
49515;BME280;35415;47.870;16.058;2022-11-20T11:18:26;96849.50;;;3.17;100.00
49515;BME280;35415;47.870;16.058;2022-11-20T11:20:56;96860.13;;;3.17;100.00
49515;BME280;35415;47.870;16.058;2022-11-20T11:23:31;96841.19;;;3.14;100.00
49515;BME280;35415;47.870;16.058;2022-11-20T11:26:00;96851.59;;;3.15;100.00
49515;BME280;35415;47.870;16.058;2022-11-20T11:28:28;96833.56;;;3.06;100.00
49515;BME280;35415;47.870;16.058;2022-11-20T11:30:55;96797.84;;;2.78;100.00
49515;BME280;35415;47.870;16.058;2022-11-20T11:33:25;96827.44;;;2.93;100.00
49515;BME280;35415;47.870;16.058;2022-11-20T11:35:54;96754.06;;;2.46;100.00
49515;BME280;35415;47.870;16.058;2022-11-20T11:38:30;96765.59;;;2.51;100.00
49515;BME280;35415;47.870;16.058;2022-11-20T11:41:02;96804.53;;;2.81;100.00
49515;BME280;35415;47.870;16.058;2022-11-20T11:43:33;96762.00;;;2.46;100.00
49515;BME280;35415;47.870;16.058;2022-11-20T11:46:32;96775.19;;;2.52;100.00
49515;BME280;35415;47.870;16.058;2022-11-20T11:49:16;96843.25;;;2.88;100.00
49515;BME280;35415;47.870;16.058;2022-11-20T11:51:54;96736.34;;;2.28;100.00
49515;BME280;35415;47.870;16.058;2022-11-20T11:54:28;96833.53;;;2.82;100.00
49515;BME280;35415;47.870;16.058;2022-11-20T11:57:01;96820.13;;;2.77;100.00
49515;BME280;35415;47.870;16.058;2022-11-20T11:59:44;96761.09;;;2.40;100.00
49515;BME280;35415;47.870;16.058;2022-11-20T12:02:25;96771.69;;;2.40;100.00
49515;BME280;35415;47.870;16.058;2022-11-20T12:04:58;96815.75;;;2.71;100.00
49515;BME280;35415;47.870;16.058;2022-11-20T12:07:37;96820.69;;;2.67;100.00
49515;BME280;35415;47.870;16.058;2022-11-20T12:10:14;96817.22;;;2.55;100.00
49515;BME280;35415;47.870;16.058;2022-11-20T12:12:45;96783.25;;;2.46;100.00
49515;BME280;35415;47.870;16.058;2022-11-20T12:15:24;96764.50;;;2.29;100.00
49515;BME280;35415;47.870;16.058;2022-11-20T12:17:54;96823.78;;;2.64;100.00
49515;BME280;35415;47.870;16.058;2022-11-20T12:20:26;96823.00;;;2.64;100.00
49515;BME280;35415;47.870;16.058;2022-11-20T12:23:00;96812.03;;;2.60;100.00
49515;BME280;35415;47.870;16.058;2022-11-20T12:25:30;96811.09;;;2.55;100.00
49515;BME280;35415;47.870;16.058;2022-11-20T12:28:17;96827.25;;;2.65;100.00
49515;BME280;35415;47.870;16.058;2022-11-20T12:31:03;96826.44;;;2.64;100.00
49515;BME280;35415;47.870;16.058;2022-11-20T12:33:47;96817.34;;;2.60;100.00
49515;BME280;35415;47.870;16.058;2022-11-20T12:36:29;96762.09;;;2.27;100.00
49515;BME280;35415;47.870;16.058;2022-11-20T12:39:11;96825.19;;;2.67;100.00
49515;BME280;35415;47.870;16.058;2022-11-20T12:41:51;96809.13;;;2.62;100.00
49515;BME280;35415;47.870;16.058;2022-11-20T12:45:02;96822.69;;;2.72;100.00
49515;BME280;35415;47.870;16.058;2022-11-20T12:48:03;96822.09;;;2.70;100.00
49515;BME280;35415;47.870;16.058;2022-11-20T12:50:45;96809.03;;;2.68;100.00
49515;BME280;35415;47.870;16.058;2022-11-20T12:53:25;96786.75;;;2.58;100.00
49515;BME280;35415;47.870;16.058;2022-11-20T12:55:57;96795.63;;;2.63;100.00
49515;BME280;35415;47.870;16.058;2022-11-20T12:58:29;96814.94;;;2.70;100.00
49515;BME280;35415;47.870;16.058;2022-11-20T13:01:10;96815.50;;;2.72;100.00
49515;BME280;35415;47.870;16.058;2022-11-20T13:04:08;96807.31;;;2.74;100.00
49515;BME280;35415;47.870;16.058;2022-11-20T13:06:36;96809.97;;;2.74;100.00
49515;BME280;35415;47.870;16.058;2022-11-20T13:09:09;96811.34;;;2.77;100.00
49515;BME280;35415;47.870;16.058;2022-11-20T13:11:42;96788.00;;;2.67;100.00